sensor_id;sensor_type;location;lat;lon;timestamp;temperature;humidity
59572;DHT22;59406;45.602;11.904;2023-01-26T00:01:58;4.60;82.90
59572;DHT22;59406;45.602;11.904;2023-01-26T00:04:24;4.60;83.00
59572;DHT22;59406;45.602;11.904;2023-01-26T00:06:50;4.50;83.20
59572;DHT22;59406;45.602;11.904;2023-01-26T00:09:16;4.40;83.10
59572;DHT22;59406;45.602;11.904;2023-01-26T00:11:41;4.60;83.10
59572;DHT22;59406;45.602;11.904;2023-01-26T00:14:07;4.60;83.10
59572;DHT22;59406;45.602;11.904;2023-01-26T00:16:33;4.40;83.20
59572;DHT22;59406;45.602;11.904;2023-01-26T00:19:00;4.50;83.50
59572;DHT22;59406;45.602;11.904;2023-01-26T00:21:27;4.60;83.40
59572;DHT22;59406;45.602;11.904;2023-01-26T00:23:53;4.60;83.10
59572;DHT22;59406;45.602;11.904;2023-01-26T00:26:21;4.40;83.30
59572;DHT22;59406;45.602;11.904;2023-01-26T00:28:48;4.40;83.10
59572;DHT22;59406;45.602;11.904;2023-01-26T00:31:16;4.40;83.20
59572;DHT22;59406;45.602;11.904;2023-01-26T00:33:42;4.30;83.10
59572;DHT22;59406;45.602;11.904;2023-01-26T00:36:09;4.30;83.10
59572;DHT22;59406;45.602;11.904;2023-01-26T00:38:35;4.30;83.40
59572;DHT22;59406;45.602;11.904;2023-01-26T00:41:01;4.50;83.40
59572;DHT22;59406;45.602;11.904;2023-01-26T00:43:27;4.30;83.00
59572;DHT22;59406;45.602;11.904;2023-01-26T00:45:53;4.50;83.10
59572;DHT22;59406;45.602;11.904;2023-01-26T00:48:19;4.70;82.90
59572;DHT22;59406;45.602;11.904;2023-01-26T00:50:45;4.40;83.10
59572;DHT22;59406;45.602;11.904;2023-01-26T00:53:11;4.50;83.30
59572;DHT22;59406;45.602;11.904;2023-01-26T00:55:36;4.50;83.10
59572;DHT22;59406;45.602;11.904;2023-01-26T00:58:06;4.50;83.00
59572;DHT22;59406;45.602;11.904;2023-01-26T01:00:36;4.50;82.80
59572;DHT22;59406;45.602;11.904;2023-01-26T01:03:03;4.60;82.80
59572;DHT22;59406;45.602;11.904;2023-01-26T01:05:30;4.60;82.90
59572;DHT22;59406;45.602;11.904;2023-01-26T01:07:57;4.40;82.60
59572;DHT22;59406;45.602;11.904;2023-01-26T01:10:23;4.50;82.60
59572;DHT22;59406;45.602;11.904;2023-01-26T01:12:49;4.40;82.50
59572;DHT22;59406;45.602;11.904;2023-01-26T01:15:15;4.30;82.60
59572;DHT22;59406;45.602;11.904;2023-01-26T01:17:41;4.50;82.60
59572;DHT22;59406;45.602;11.904;2023-01-26T01:20:09;4.30;82.50
59572;DHT22;59406;45.602;11.904;2023-01-26T01:22:36;4.40;82.60
59572;DHT22;59406;45.602;11.904;2023-01-26T01:25:02;4.40;82.20
59572;DHT22;59406;45.602;11.904;2023-01-26T01:27:28;4.40;82.10
59572;DHT22;59406;45.602;11.904;2023-01-26T01:29:54;4.60;82.20
59572;DHT22;59406;45.602;11.904;2023-01-26T01:32:20;4.70;82.30
59572;DHT22;59406;45.602;11.904;2023-01-26T01:34:47;4.50;82.00
59572;DHT22;59406;45.602;11.904;2023-01-26T01:37:13;4.60;82.10
59572;DHT22;59406;45.602;11.904;2023-01-26T01:39:39;4.60;82.10
59572;DHT22;59406;45.602;11.904;2023-01-26T01:42:05;4.60;82.10
59572;DHT22;59406;45.602;11.904;2023-01-26T01:44:35;4.50;82.00
59572;DHT22;59406;45.602;11.904;2023-01-26T01:47:05;4.70;81.90
59572;DHT22;59406;45.602;11.904;2023-01-26T01:49:43;4.80;81.80
59572;DHT22;59406;45.602;11.904;2023-01-26T01:55:01;5.00;81.70
59572;DHT22;59406;45.602;11.904;2023-01-26T01:57:42;4.90;81.70
59572;DHT22;59406;45.602;11.904;2023-01-26T02:00:14;4.90;82.80
59572;DHT22;59406;45.602;11.904;2023-01-26T02:02:43;4.80;82.30
59572;DHT22;59406;45.602;11.904;2023-01-26T02:05:32;4.90;82.30
59572;DHT22;59406;45.602;11.904;2023-01-26T02:08:02;4.80;82.30
59572;DHT22;59406;45.602;11.904;2023-01-26T02:10:29;4.90;82.30
59572;DHT22;59406;45.602;11.904;2023-01-26T02:12:55;5.10;82.30
59572;DHT22;59406;45.602;11.904;2023-01-26T02:15:22;4.90;82.20
59572;DHT22;59406;45.602;11.904;2023-01-26T02:17:51;5.10;82.00
59572;DHT22;59406;45.602;11.904;2023-01-26T02:28:22;5.30;81.80
59572;DHT22;59406;45.602;11.904;2023-01-26T02:30:49;5.40;81.40
59572;DHT22;59406;45.602;11.904;2023-01-26T02:33:19;5.40;81.50
59572;DHT22;59406;45.602;11.904;2023-01-26T02:35:46;5.40;81.60
59572;DHT22;59406;45.602;11.904;2023-01-26T02:38:11;5.50;81.40
59572;DHT22;59406;45.602;11.904;2023-01-26T02:40:52;5.50;81.30
59572;DHT22;59406;45.602;11.904;2023-01-26T02:43:20;5.40;81.30
59572;DHT22;59406;45.602;11.904;2023-01-26T02:45:47;5.30;81.30
59572;DHT22;59406;45.602;11.904;2023-01-26T02:48:13;5.60;81.30
59572;DHT22;59406;45.602;11.904;2023-01-26T02:50:39;5.50;81.40
59572;DHT22;59406;45.602;11.904;2023-01-26T02:53:05;5.60;81.40
59572;DHT22;59406;45.602;11.904;2023-01-26T02:55:30;5.40;82.50
59572;DHT22;59406;45.602;11.904;2023-01-26T02:58:02;5.30;81.80
59572;DHT22;59406;45.602;11.904;2023-01-26T03:00:31;5.60;81.50
59572;DHT22;59406;45.602;11.904;2023-01-26T03:02:59;5.60;81.10
59572;DHT22;59406;45.602;11.904;2023-01-26T03:05:27;5.60;81.10
59572;DHT22;59406;45.602;11.904;2023-01-26T03:07:53;5.50;81.00
59572;DHT22;59406;45.602;11.904;2023-01-26T03:10:20;5.60;81.10
59572;DHT22;59406;45.602;11.904;2023-01-26T03:12:48;5.60;81.00
59572;DHT22;59406;45.602;11.904;2023-01-26T03:15:14;5.80;81.00
59572;DHT22;59406;45.602;11.904;2023-01-26T03:18:03;5.60;81.00
59572;DHT22;59406;45.602;11.904;2023-01-26T03:20:47;5.70;81.00
59572;DHT22;59406;45.602;11.904;2023-01-26T03:23:32;5.60;80.90
59572;DHT22;59406;45.602;11.904;2023-01-26T03:26:17;5.70;80.80
59572;DHT22;59406;45.602;11.904;2023-01-26T03:29:01;5.80;80.90
59572;DHT22;59406;45.602;11.904;2023-01-26T03:31:27;5.70;80.70
59572;DHT22;59406;45.602;11.904;2023-01-26T03:33:53;5.60;80.80
59572;DHT22;59406;45.602;11.904;2023-01-26T03:36:19;5.70;80.80
59572;DHT22;59406;45.602;11.904;2023-01-26T03:38:45;5.70;80.70
59572;DHT22;59406;45.602;11.904;2023-01-26T03:41:12;5.60;80.80
59572;DHT22;59406;45.602;11.904;2023-01-26T03:43:56;5.50;80.80
59572;DHT22;59406;45.602;11.904;2023-01-26T03:46:40;5.80;81.00
59572;DHT22;59406;45.602;11.904;2023-01-26T03:49:25;5.70;81.10
59572;DHT22;59406;45.602;11.904;2023-01-26T03:52:09;5.80;81.10
59572;DHT22;59406;45.602;11.904;2023-01-26T03:54:54;5.80;81.30
59572;DHT22;59406;45.602;11.904;2023-01-26T03:57:38;5.70;81.30
59572;DHT22;59406;45.602;11.904;2023-01-26T04:00:05;5.90;81.20
59572;DHT22;59406;45.602;11.904;2023-01-26T04:02:31;5.80;81.60
59572;DHT22;59406;45.602;11.904;2023-01-26T04:05:15;5.60;81.70
59572;DHT22;59406;45.602;11.904;2023-01-26T04:08:04;5.70;81.60
59572;DHT22;59406;45.602;11.904;2023-01-26T04:10:46;5.60;81.70
59572;DHT22;59406;45.602;11.904;2023-01-26T04:13:12;5.70;81.70
59572;DHT22;59406;45.602;11.904;2023-01-26T04:15:57;5.70;81.70
59572;DHT22;59406;45.602;11.904;2023-01-26T04:18:41;5.80;81.80
59572;DHT22;59406;45.602;11.904;2023-01-26T04:21:26;5.70;82.00
59572;DHT22;59406;45.602;11.904;2023-01-26T04:23:56;5.60;81.90
59572;DHT22;59406;45.602;11.904;2023-01-26T04:26:30;5.80;82.10
59572;DHT22;59406;45.602;11.904;2023-01-26T04:29:05;5.80;82.20
59572;DHT22;59406;45.602;11.904;2023-01-26T04:31:31;5.90;82.20
59572;DHT22;59406;45.602;11.904;2023-01-26T04:33:58;5.80;82.10
59572;DHT22;59406;45.602;11.904;2023-01-26T04:36:25;5.90;82.20
59572;DHT22;59406;45.602;11.904;2023-01-26T04:38:51;5.80;82.30
59572;DHT22;59406;45.602;11.904;2023-01-26T04:41:17;5.90;82.30
59572;DHT22;59406;45.602;11.904;2023-01-26T04:43:43;5.60;82.20
59572;DHT22;59406;45.602;11.904;2023-01-26T04:46:09;5.80;82.40
59572;DHT22;59406;45.602;11.904;2023-01-26T04:48:36;5.80;82.40
59572;DHT22;59406;45.602;11.904;2023-01-26T04:51:14;5.90;82.50
59572;DHT22;59406;45.602;11.904;2023-01-26T04:53:41;5.70;82.50
59572;DHT22;59406;45.602;11.904;2023-01-26T04:56:12;5.70;82.60
59572;DHT22;59406;45.602;11.904;2023-01-26T04:58:39;5.80;82.50
59572;DHT22;59406;45.602;11.904;2023-01-26T05:01:05;5.70;82.70
59572;DHT22;59406;45.602;11.904;2023-01-26T05:03:31;5.80;82.50
59572;DHT22;59406;45.602;11.904;2023-01-26T05:05:57;5.80;82.50
59572;DHT22;59406;45.602;11.904;2023-01-26T05:08:23;5.70;82.60
59572;DHT22;59406;45.602;11.904;2023-01-26T05:10:49;5.70;82.60
59572;DHT22;59406;45.602;11.904;2023-01-26T05:13:17;5.70;82.80
59572;DHT22;59406;45.602;11.904;2023-01-26T05:15:43;5.70;82.70
59572;DHT22;59406;45.602;11.904;2023-01-26T05:18:10;5.80;82.80
59572;DHT22;59406;45.602;11.904;2023-01-26T05:20:36;5.50;83.10
59572;DHT22;59406;45.602;11.904;2023-01-26T05:23:02;5.60;83.00
59572;DHT22;59406;45.602;11.904;2023-01-26T05:25:28;5.50;83.20
59572;DHT22;59406;45.602;11.904;2023-01-26T05:27:54;5.40;83.20
59572;DHT22;59406;45.602;11.904;2023-01-26T05:30:20;5.60;83.40
59572;DHT22;59406;45.602;11.904;2023-01-26T05:32:46;5.50;83.40
59572;DHT22;59406;45.602;11.904;2023-01-26T05:35:12;5.40;83.20
59572;DHT22;59406;45.602;11.904;2023-01-26T05:37:38;5.60;83.20
59572;DHT22;59406;45.602;11.904;2023-01-26T05:40:07;5.70;83.10
59572;DHT22;59406;45.602;11.904;2023-01-26T05:42:33;5.60;83.10
59572;DHT22;59406;45.602;11.904;2023-01-26T05:44:59;5.60;83.30
59572;DHT22;59406;45.602;11.904;2023-01-26T05:47:25;5.70;83.40
59572;DHT22;59406;45.602;11.904;2023-01-26T05:49:51;5.70;83.20
59572;DHT22;59406;45.602;11.904;2023-01-26T05:52:20;5.70;83.10
59572;DHT22;59406;45.602;11.904;2023-01-26T05:54:46;5.70;83.10
59572;DHT22;59406;45.602;11.904;2023-01-26T05:57:12;5.60;83.10
59572;DHT22;59406;45.602;11.904;2023-01-26T05:59:38;5.60;83.10
59572;DHT22;59406;45.602;11.904;2023-01-26T06:02:04;5.70;83.20
59572;DHT22;59406;45.602;11.904;2023-01-26T06:04:30;5.40;83.20
59572;DHT22;59406;45.602;11.904;2023-01-26T06:06:58;5.40;83.50
59572;DHT22;59406;45.602;11.904;2023-01-26T06:09:24;5.20;83.70
59572;DHT22;59406;45.602;11.904;2023-01-26T06:11:50;5.10;83.80
59572;DHT22;59406;45.602;11.904;2023-01-26T06:14:16;5.00;84.10
59572;DHT22;59406;45.602;11.904;2023-01-26T06:16:42;4.80;84.20
59572;DHT22;59406;45.602;11.904;2023-01-26T06:19:09;4.70;84.00
59572;DHT22;59406;45.602;11.904;2023-01-26T06:21:36;4.70;83.90
59572;DHT22;59406;45.602;11.904;2023-01-26T06:24:02;5.00;83.90
59572;DHT22;59406;45.602;11.904;2023-01-26T06:26:28;4.60;84.10
59572;DHT22;59406;45.602;11.904;2023-01-26T06:28:54;4.40;84.30
59572;DHT22;59406;45.602;11.904;2023-01-26T06:31:20;4.40;84.60
59572;DHT22;59406;45.602;11.904;2023-01-26T06:33:49;4.30;84.70
59572;DHT22;59406;45.602;11.904;2023-01-26T06:36:15;4.20;84.80
59572;DHT22;59406;45.602;11.904;2023-01-26T06:38:46;4.30;84.70
59572;DHT22;59406;45.602;11.904;2023-01-26T06:41:12;4.20;84.60
59572;DHT22;59406;45.602;11.904;2023-01-26T06:43:38;4.20;84.80
59572;DHT22;59406;45.602;11.904;2023-01-26T06:46:05;4.20;84.50
59572;DHT22;59406;45.602;11.904;2023-01-26T06:48:32;4.20;84.40
59572;DHT22;59406;45.602;11.904;2023-01-26T06:56:20;4.20;84.70
59572;DHT22;59406;45.602;11.904;2023-01-26T06:58:46;3.80;85.10
59572;DHT22;59406;45.602;11.904;2023-01-26T07:01:19;4.10;84.90
59572;DHT22;59406;45.602;11.904;2023-01-26T07:03:49;4.00;84.40
59572;DHT22;59406;45.602;11.904;2023-01-26T07:06:15;4.20;84.50
59572;DHT22;59406;45.602;11.904;2023-01-26T07:08:41;4.10;84.30
59572;DHT22;59406;45.602;11.904;2023-01-26T07:11:07;4.40;84.20
59572;DHT22;59406;45.602;11.904;2023-01-26T07:13:33;4.30;84.30
59572;DHT22;59406;45.602;11.904;2023-01-26T07:16:04;4.40;84.20
59572;DHT22;59406;45.602;11.904;2023-01-26T07:18:30;4.80;83.80
59572;DHT22;59406;45.602;11.904;2023-01-26T07:21:00;5.40;83.00
59572;DHT22;59406;45.602;11.904;2023-01-26T07:23:27;6.10;82.30
59572;DHT22;59406;45.602;11.904;2023-01-26T07:25:53;6.40;81.70
59572;DHT22;59406;45.602;11.904;2023-01-26T07:28:19;6.30;81.30
59572;DHT22;59406;45.602;11.904;2023-01-26T07:30:45;6.00;81.70
59572;DHT22;59406;45.602;11.904;2023-01-26T07:33:11;5.60;82.00
59572;DHT22;59406;45.602;11.904;2023-01-26T07:35:37;5.90;82.30
59572;DHT22;59406;45.602;11.904;2023-01-26T07:38:03;5.80;82.10
59572;DHT22;59406;45.602;11.904;2023-01-26T07:40:29;5.90;82.20
59572;DHT22;59406;45.602;11.904;2023-01-26T07:42:56;5.80;81.80
59572;DHT22;59406;45.602;11.904;2023-01-26T07:45:24;6.20;81.00
59572;DHT22;59406;45.602;11.904;2023-01-26T07:47:53;6.60;80.90
59572;DHT22;59406;45.602;11.904;2023-01-26T07:50:18;6.80;80.70
59572;DHT22;59406;45.602;11.904;2023-01-26T07:52:47;6.90;80.60
59572;DHT22;59406;45.602;11.904;2023-01-26T07:55:13;7.10;80.50
59572;DHT22;59406;45.602;11.904;2023-01-26T07:57:39;7.20;80.50
59572;DHT22;59406;45.602;11.904;2023-01-26T08:00:07;7.10;80.60
59572;DHT22;59406;45.602;11.904;2023-01-26T08:02:33;6.80;80.60
59572;DHT22;59406;45.602;11.904;2023-01-26T08:04:59;6.80;80.50
59572;DHT22;59406;45.602;11.904;2023-01-26T08:07:25;6.60;79.90
59572;DHT22;59406;45.602;11.904;2023-01-26T08:09:51;6.80;80.00
59572;DHT22;59406;45.602;11.904;2023-01-26T08:12:17;6.60;80.30
59572;DHT22;59406;45.602;11.904;2023-01-26T08:14:43;6.70;80.30
59572;DHT22;59406;45.602;11.904;2023-01-26T08:17:09;6.60;80.50
59572;DHT22;59406;45.602;11.904;2023-01-26T08:19:34;6.60;80.40
59572;DHT22;59406;45.602;11.904;2023-01-26T08:22:00;6.80;80.50
59572;DHT22;59406;45.602;11.904;2023-01-26T08:24:26;6.90;80.30
59572;DHT22;59406;45.602;11.904;2023-01-26T08:26:52;6.80;80.50
59572;DHT22;59406;45.602;11.904;2023-01-26T08:29:19;6.90;80.80
59572;DHT22;59406;45.602;11.904;2023-01-26T08:31:45;6.90;81.10
59572;DHT22;59406;45.602;11.904;2023-01-26T08:34:11;7.00;80.00
59572;DHT22;59406;45.602;11.904;2023-01-26T08:36:38;7.10;79.80
59572;DHT22;59406;45.602;11.904;2023-01-26T08:39:04;7.20;79.10
59572;DHT22;59406;45.602;11.904;2023-01-26T08:41:30;7.20;78.90
59572;DHT22;59406;45.602;11.904;2023-01-26T08:43:57;7.50;79.00
59572;DHT22;59406;45.602;11.904;2023-01-26T08:46:25;7.60;78.30
59572;DHT22;59406;45.602;11.904;2023-01-26T08:48:51;7.70;78.30
59572;DHT22;59406;45.602;11.904;2023-01-26T08:51:17;7.90;77.90
59572;DHT22;59406;45.602;11.904;2023-01-26T08:53:43;8.40;77.80
59572;DHT22;59406;45.602;11.904;2023-01-26T08:56:11;8.80;76.60
59572;DHT22;59406;45.602;11.904;2023-01-26T08:58:38;9.20;76.00
59572;DHT22;59406;45.602;11.904;2023-01-26T09:01:12;9.50;76.90
59572;DHT22;59406;45.602;11.904;2023-01-26T09:03:39;10.10;76.20
59572;DHT22;59406;45.602;11.904;2023-01-26T09:06:06;10.70;75.40
59572;DHT22;59406;45.602;11.904;2023-01-26T09:08:32;11.30;74.40
59572;DHT22;59406;45.602;11.904;2023-01-26T09:10:58;11.80;74.80
59572;DHT22;59406;45.602;11.904;2023-01-26T09:13:25;12.60;73.90
59572;DHT22;59406;45.602;11.904;2023-01-26T09:15:51;12.10;72.40
59572;DHT22;59406;45.602;11.904;2023-01-26T09:18:17;12.20;73.30
59572;DHT22;59406;45.602;11.904;2023-01-26T09:20:43;12.70;70.80
59572;DHT22;59406;45.602;11.904;2023-01-26T09:23:10;12.60;72.60
59572;DHT22;59406;45.602;11.904;2023-01-26T09:25:38;12.70;71.50
59572;DHT22;59406;45.602;11.904;2023-01-26T09:28:04;13.00;71.00
59572;DHT22;59406;45.602;11.904;2023-01-26T09:30:31;12.80;70.90
59572;DHT22;59406;45.602;11.904;2023-01-26T09:32:57;12.30;70.70
59572;DHT22;59406;45.602;11.904;2023-01-26T09:35:25;12.70;69.90
59572;DHT22;59406;45.602;11.904;2023-01-26T09:37:51;12.90;70.90
59572;DHT22;59406;45.602;11.904;2023-01-26T09:40:45;12.80;69.20
59572;DHT22;59406;45.602;11.904;2023-01-26T09:45:47;13.20;70.30
59572;DHT22;59406;45.602;11.904;2023-01-26T09:54:32;13.70;69.00
59572;DHT22;59406;45.602;11.904;2023-01-26T09:57:02;13.90;68.20
59572;DHT22;59406;45.602;11.904;2023-01-26T10:08:16;13.70;67.60
59572;DHT22;59406;45.602;11.904;2023-01-26T10:10:57;13.50;68.40
59572;DHT22;59406;45.602;11.904;2023-01-26T10:13:25;13.70;68.30
59572;DHT22;59406;45.602;11.904;2023-01-26T10:16:05;13.40;68.80
59572;DHT22;59406;45.602;11.904;2023-01-26T10:18:55;13.80;68.90
59572;DHT22;59406;45.602;11.904;2023-01-26T10:21:25;13.90;68.30
59572;DHT22;59406;45.602;11.904;2023-01-26T10:23:53;13.90;67.90
59572;DHT22;59406;45.602;11.904;2023-01-26T10:26:22;13.60;67.90
59572;DHT22;59406;45.602;11.904;2023-01-26T10:28:50;13.20;68.00
59572;DHT22;59406;45.602;11.904;2023-01-26T10:31:22;13.20;68.30
59572;DHT22;59406;45.602;11.904;2023-01-26T10:33:54;13.70;68.50
59572;DHT22;59406;45.602;11.904;2023-01-26T10:36:21;14.00;67.80
59572;DHT22;59406;45.602;11.904;2023-01-26T10:38:48;13.60;68.30
59572;DHT22;59406;45.602;11.904;2023-01-26T10:43:58;14.10;67.30
59572;DHT22;59406;45.602;11.904;2023-01-26T10:48:53;14.00;66.70
59572;DHT22;59406;45.602;11.904;2023-01-26T10:51:29;14.20;66.80
59572;DHT22;59406;45.602;11.904;2023-01-26T10:54:21;14.40;66.40
59572;DHT22;59406;45.602;11.904;2023-01-26T10:56:57;14.30;66.70
59572;DHT22;59406;45.602;11.904;2023-01-26T10:59:38;15.00;66.70
59572;DHT22;59406;45.602;11.904;2023-01-26T11:04:37;14.90;66.00
59572;DHT22;59406;45.602;11.904;2023-01-26T11:07:26;14.90;66.00
59572;DHT22;59406;45.602;11.904;2023-01-26T11:09:53;15.20;65.00
59572;DHT22;59406;45.602;11.904;2023-01-26T11:12:21;14.00;66.00
59572;DHT22;59406;45.602;11.904;2023-01-26T11:15:00;14.60;66.50
59572;DHT22;59406;45.602;11.904;2023-01-26T11:17:36;15.40;65.80
59572;DHT22;59406;45.602;11.904;2023-01-26T11:20:22;16.00;63.90
59572;DHT22;59406;45.602;11.904;2023-01-26T11:25:43;16.80;56.00
59572;DHT22;59406;45.602;11.904;2023-01-26T11:50:36;18.10;53.60
59572;DHT22;59406;45.602;11.904;2023-01-26T11:56:18;17.80;52.90
59572;DHT22;59406;45.602;11.904;2023-01-26T11:59:16;18.50;50.40
59572;DHT22;59406;45.602;11.904;2023-01-26T12:04:47;18.90;48.80
59572;DHT22;59406;45.602;11.904;2023-01-26T12:07:24;19.20;48.50
59572;DHT22;59406;45.602;11.904;2023-01-26T12:09:52;18.30;47.90
59572;DHT22;59406;45.602;11.904;2023-01-26T12:12:36;17.20;52.70
59572;DHT22;59406;45.602;11.904;2023-01-26T12:25:38;17.10;51.00
59572;DHT22;59406;45.602;11.904;2023-01-26T12:30:50;18.90;49.50
59572;DHT22;59406;45.602;11.904;2023-01-26T12:33:18;19.60;47.00
59572;DHT22;59406;45.602;11.904;2023-01-26T12:46:46;18.80;46.70
59572;DHT22;59406;45.602;11.904;2023-01-26T12:49:40;18.30;47.70
59572;DHT22;59406;45.602;11.904;2023-01-26T12:52:07;17.30;49.90
59572;DHT22;59406;45.602;11.904;2023-01-26T12:54:58;17.00;51.10
59572;DHT22;59406;45.602;11.904;2023-01-26T12:57:34;17.30;50.80
59572;DHT22;59406;45.602;11.904;2023-01-26T13:00:04;18.80;47.70
59572;DHT22;59406;45.602;11.904;2023-01-26T13:02:34;19.30;46.50
59572;DHT22;59406;45.602;11.904;2023-01-26T13:05:02;19.20;46.70
59572;DHT22;59406;45.602;11.904;2023-01-26T13:07:39;19.70;47.10
59572;DHT22;59406;45.602;11.904;2023-01-26T13:12:59;20.40;46.10
59572;DHT22;59406;45.602;11.904;2023-01-26T13:15:30;20.80;44.20
59572;DHT22;59406;45.602;11.904;2023-01-26T13:18:01;19.80;45.70
59572;DHT22;59406;45.602;11.904;2023-01-26T13:22:54;20.00;45.50
59572;DHT22;59406;45.602;11.904;2023-01-26T13:25:32;20.20;45.30
59572;DHT22;59406;45.602;11.904;2023-01-26T13:27:59;19.70;42.40
59572;DHT22;59406;45.602;11.904;2023-01-26T13:33:00;17.70;48.90
59572;DHT22;59406;45.602;11.904;2023-01-26T13:35:28;18.30;48.20
59572;DHT22;59406;45.602;11.904;2023-01-26T13:40:38;19.50;46.00
59572;DHT22;59406;45.602;11.904;2023-01-26T13:43:20;19.60;45.00
59572;DHT22;59406;45.602;11.904;2023-01-26T13:48:48;17.80;49.00
59572;DHT22;59406;45.602;11.904;2023-01-26T13:51:25;16.90;49.20
59572;DHT22;59406;45.602;11.904;2023-01-26T13:53:56;16.90;51.40
59572;DHT22;59406;45.602;11.904;2023-01-26T13:56:25;17.10;51.30
59572;DHT22;59406;45.602;11.904;2023-01-26T13:58:51;17.90;49.80
59572;DHT22;59406;45.602;11.904;2023-01-26T14:01:19;18.60;48.70
59572;DHT22;59406;45.602;11.904;2023-01-26T14:03:45;19.00;48.40
59572;DHT22;59406;45.602;11.904;2023-01-26T14:06:17;20.10;46.70
59572;DHT22;59406;45.602;11.904;2023-01-26T14:08:54;20.60;43.90
59572;DHT22;59406;45.602;11.904;2023-01-26T14:11:27;20.90;43.90
59572;DHT22;59406;45.602;11.904;2023-01-26T14:13:57;21.70;41.10
59572;DHT22;59406;45.602;11.904;2023-01-26T14:16:35;22.00;41.10
59572;DHT22;59406;45.602;11.904;2023-01-26T14:19:16;21.70;39.50
59572;DHT22;59406;45.602;11.904;2023-01-26T14:21:50;20.60;42.60
59572;DHT22;59406;45.602;11.904;2023-01-26T14:24:17;20.00;43.60
59572;DHT22;59406;45.602;11.904;2023-01-26T14:26:46;20.30;44.30
59572;DHT22;59406;45.602;11.904;2023-01-26T14:29:25;20.40;44.20
59572;DHT22;59406;45.602;11.904;2023-01-26T14:31:53;20.50;40.80
59572;DHT22;59406;45.602;11.904;2023-01-26T14:34:27;20.50;43.70
59572;DHT22;59406;45.602;11.904;2023-01-26T14:37:15;20.70;43.40
59572;DHT22;59406;45.602;11.904;2023-01-26T14:39:42;21.20;40.80
59572;DHT22;59406;45.602;11.904;2023-01-26T14:42:18;21.70;40.70
59572;DHT22;59406;45.602;11.904;2023-01-26T14:44:45;21.70;38.00
59572;DHT22;59406;45.602;11.904;2023-01-26T14:47:19;21.50;40.20
59572;DHT22;59406;45.602;11.904;2023-01-26T14:49:54;21.80;40.20
59572;DHT22;59406;45.602;11.904;2023-01-26T14:52:26;22.00;39.90
59572;DHT22;59406;45.602;11.904;2023-01-26T14:54:55;22.10;38.80
59572;DHT22;59406;45.602;11.904;2023-01-26T14:57:24;21.20;40.70
59572;DHT22;59406;45.602;11.904;2023-01-26T14:59:56;21.00;42.00
59572;DHT22;59406;45.602;11.904;2023-01-26T15:02:35;20.40;40.70
59572;DHT22;59406;45.602;11.904;2023-01-26T15:05:12;20.00;44.20
59572;DHT22;59406;45.602;11.904;2023-01-26T15:07:57;20.00;43.30
59572;DHT22;59406;45.602;11.904;2023-01-26T15:15:31;17.50;47.70
59572;DHT22;59406;45.602;11.904;2023-01-26T15:20:44;15.70;51.60
59572;DHT22;59406;45.602;11.904;2023-01-26T15:23:24;15.00;63.20
59572;DHT22;59406;45.602;11.904;2023-01-26T15:25:52;14.30;63.60
59572;DHT22;59406;45.602;11.904;2023-01-26T15:28:22;13.70;64.00
59572;DHT22;59406;45.602;11.904;2023-01-26T15:30:53;13.40;64.40
59572;DHT22;59406;45.602;11.904;2023-01-26T15:33:39;13.20;64.60
59572;DHT22;59406;45.602;11.904;2023-01-26T15:36:23;12.70;64.70
59572;DHT22;59406;45.602;11.904;2023-01-26T15:39:00;12.50;66.50
59572;DHT22;59406;45.602;11.904;2023-01-26T15:41:27;12.30;66.50
59572;DHT22;59406;45.602;11.904;2023-01-26T15:43:55;12.10;66.60
59572;DHT22;59406;45.602;11.904;2023-01-26T15:46:22;12.00;66.50
59572;DHT22;59406;45.602;11.904;2023-01-26T15:48:48;11.80;66.80
59572;DHT22;59406;45.602;11.904;2023-01-26T15:51:18;11.60;66.60
59572;DHT22;59406;45.602;11.904;2023-01-26T15:53:44;11.50;66.70
59572;DHT22;59406;45.602;11.904;2023-01-26T15:56:14;11.40;66.70
59572;DHT22;59406;45.602;11.904;2023-01-26T15:58:41;11.00;68.00
59572;DHT22;59406;45.602;11.904;2023-01-26T16:01:17;10.50;69.20
59572;DHT22;59406;45.602;11.904;2023-01-26T16:03:45;10.20;68.50
59572;DHT22;59406;45.602;11.904;2023-01-26T16:06:31;9.90;68.60
59572;DHT22;59406;45.602;11.904;2023-01-26T16:08:58;10.00;68.60
59572;DHT22;59406;45.602;11.904;2023-01-26T16:11:27;9.90;68.70
59572;DHT22;59406;45.602;11.904;2023-01-26T16:13:54;10.00;68.60
59572;DHT22;59406;45.602;11.904;2023-01-26T16:16:21;9.90;68.60
59572;DHT22;59406;45.602;11.904;2023-01-26T16:18:53;9.80;68.80
59572;DHT22;59406;45.602;11.904;2023-01-26T16:21:24;9.70;69.10
59572;DHT22;59406;45.602;11.904;2023-01-26T16:23:51;9.60;69.20
59572;DHT22;59406;45.602;11.904;2023-01-26T16:26:18;9.40;69.30
59572;DHT22;59406;45.602;11.904;2023-01-26T16:28:45;9.00;70.00
59572;DHT22;59406;45.602;11.904;2023-01-26T16:31:22;8.80;70.60
59572;DHT22;59406;45.602;11.904;2023-01-26T16:33:49;8.50;72.50
59572;DHT22;59406;45.602;11.904;2023-01-26T16:36:16;8.30;72.60
59572;DHT22;59406;45.602;11.904;2023-01-26T16:38:43;7.90;72.20
59572;DHT22;59406;45.602;11.904;2023-01-26T16:41:29;7.80;72.60
59572;DHT22;59406;45.602;11.904;2023-01-26T16:43:57;7.70;72.90
59572;DHT22;59406;45.602;11.904;2023-01-26T16:46:25;7.60;72.70
59572;DHT22;59406;45.602;11.904;2023-01-26T16:48:51;7.50;73.50
59572;DHT22;59406;45.602;11.904;2023-01-26T16:51:28;7.50;72.70
59572;DHT22;59406;45.602;11.904;2023-01-26T16:53:55;7.30;73.70
59572;DHT22;59406;45.602;11.904;2023-01-26T16:56:22;7.10;73.10
59572;DHT22;59406;45.602;11.904;2023-01-26T16:58:48;7.10;72.70
59572;DHT22;59406;45.602;11.904;2023-01-26T17:01:30;7.00;73.60
59572;DHT22;59406;45.602;11.904;2023-01-26T17:03:57;6.90;73.90
59572;DHT22;59406;45.602;11.904;2023-01-26T17:06:23;6.80;73.30
59572;DHT22;59406;45.602;11.904;2023-01-26T17:08:50;6.90;73.30
59572;DHT22;59406;45.602;11.904;2023-01-26T17:11:18;6.70;73.00
59572;DHT22;59406;45.602;11.904;2023-01-26T17:13:44;6.80;72.70
59572;DHT22;59406;45.602;11.904;2023-01-26T17:16:14;6.70;72.80
59572;DHT22;59406;45.602;11.904;2023-01-26T17:18:41;6.70;73.00
59572;DHT22;59406;45.602;11.904;2023-01-26T17:21:06;6.80;73.20
59572;DHT22;59406;45.602;11.904;2023-01-26T17:23:32;6.70;72.80
59572;DHT22;59406;45.602;11.904;2023-01-26T17:25:59;6.60;72.80
59572;DHT22;59406;45.602;11.904;2023-01-26T17:28:28;6.40;75.00
59572;DHT22;59406;45.602;11.904;2023-01-26T17:30:54;6.10;74.80
59572;DHT22;59406;45.602;11.904;2023-01-26T17:33:19;6.20;74.60
59572;DHT22;59406;45.602;11.904;2023-01-26T17:35:45;6.20;74.40
59572;DHT22;59406;45.602;11.904;2023-01-26T17:38:11;6.20;74.20
59572;DHT22;59406;45.602;11.904;2023-01-26T17:40:37;6.30;74.20